createdAt,value
2023-03-01T00:01:12.974Z,4.43
2023-03-01T00:03:40.383Z,4.75
2023-03-01T00:06:08.031Z,4.43
2023-03-01T00:08:35.801Z,4.63
2023-03-01T00:11:14.427Z,4.38
2023-03-01T00:13:42.233Z,4.22
2023-03-01T00:16:11.104Z,3.92
2023-03-01T00:18:38.431Z,3.97
2023-03-01T00:21:06.231Z,4.50
2023-03-01T00:23:35.117Z,4.55
2023-03-01T00:26:02.535Z,4.93
2023-03-01T00:28:29.634Z,4.45
2023-03-01T00:30:56.859Z,4.88
2023-03-01T00:33:24.055Z,5.05
2023-03-01T00:35:51.224Z,4.60
2023-03-01T00:38:18.457Z,5.15
2023-03-01T00:40:45.616Z,4.45
2023-03-01T00:43:12.834Z,4.50
2023-03-01T00:45:39.916Z,4.30
2023-03-01T00:48:07.550Z,6.25
2023-03-01T00:50:34.767Z,5.50
2023-03-01T00:53:01.941Z,5.82
2023-03-01T00:55:29.087Z,5.25
2023-03-01T00:57:56.292Z,5.55
2023-03-01T01:00:23.417Z,5.90
2023-03-01T01:02:50.824Z,4.57
2023-03-01T01:05:22.024Z,5.03
2023-03-01T01:07:49.803Z,4.72
2023-03-01T01:10:17.871Z,5.30
2023-03-01T01:12:46.142Z,4.93
2023-03-01T01:15:15.165Z,4.88
2023-03-01T01:17:42.396Z,5.00
2023-03-01T01:20:13.333Z,5.20
2023-03-01T01:22:40.842Z,5.43
2023-03-01T01:25:08.359Z,4.88
2023-03-01T01:27:35.554Z,5.18
2023-03-01T01:30:02.908Z,5.10
2023-03-01T01:32:30.061Z,5.20
2023-03-01T01:34:57.185Z,4.95
2023-03-01T01:37:30.227Z,5.05
2023-03-01T01:39:57.551Z,5.60
2023-03-01T01:42:24.697Z,4.55
2023-03-01T01:45:11.769Z,5.47
2023-03-01T01:47:38.928Z,5.00
2023-03-01T01:50:06.292Z,4.85
2023-03-01T01:52:36.075Z,5.50
2023-03-01T01:55:03.437Z,4.63
2023-03-01T01:57:35.257Z,4.47
2023-03-01T02:00:05.455Z,5.68
2023-03-01T02:02:42.185Z,4.85
2023-03-01T02:05:15.792Z,4.15
2023-03-01T02:07:43.697Z,4.70
2023-03-01T02:10:14.036Z,4.57
2023-03-01T02:12:41.438Z,4.45
2023-03-01T02:15:08.900Z,4.88
2023-03-01T02:17:36.240Z,4.60
2023-03-01T02:20:03.458Z,5.05
2023-03-01T02:22:32.524Z,4.82
2023-03-01T02:25:09.373Z,4.97
2023-03-01T02:27:47.541Z,4.60
2023-03-01T02:30:15.236Z,4.82
2023-03-01T02:32:43.097Z,4.72
2023-03-01T02:35:13.369Z,5.85
2023-03-01T02:37:41.152Z,4.95
2023-03-01T02:40:14.632Z,5.03
2023-03-01T02:42:53.489Z,5.65
2023-03-01T02:45:20.987Z,5.13
2023-03-01T02:47:48.125Z,5.50
2023-03-01T02:50:21.741Z,5.53
2023-03-01T02:52:54.857Z,5.18
2023-03-01T02:55:22.107Z,5.57
2023-03-01T02:57:52.721Z,5.60
2023-03-01T03:00:22.545Z,5.03
2023-03-01T03:02:53.740Z,5.35
2023-03-01T03:05:28.096Z,5.72
2023-03-01T03:07:58.950Z,5.22
2023-03-01T03:10:33.280Z,5.63
2023-03-01T03:13:05.397Z,5.60
2023-03-01T03:15:32.568Z,5.72
2023-03-01T03:18:00.196Z,5.60
2023-03-01T03:20:28.506Z,5.68
2023-03-01T03:22:56.812Z,5.55
2023-03-01T03:25:24.263Z,5.22
2023-03-01T03:27:57.475Z,5.22
2023-03-01T03:30:28.870Z,5.03
2023-03-01T03:32:57.040Z,4.85
2023-03-01T03:35:29.692Z,6.00
2023-03-01T03:38:03.105Z,5.43
2023-03-01T03:40:36.289Z,5.57
2023-03-01T03:43:04.532Z,4.80
2023-03-01T03:45:34.160Z,5.22
2023-03-01T03:48:02.031Z,5.93
2023-03-01T03:50:29.129Z,5.15
2023-03-01T03:52:56.322Z,6.35
2023-03-01T03:55:24.033Z,5.25
2023-03-01T03:57:52.599Z,5.40
2023-03-01T04:00:21.160Z,6.00
2023-03-01T04:02:49.213Z,5.15
2023-03-01T04:05:17.384Z,5.60
2023-03-01T04:07:44.838Z,5.47
2023-03-01T04:10:13.296Z,6.40
2023-03-01T04:12:40.449Z,6.50
2023-03-01T04:15:14.506Z,6.50
2023-03-01T04:17:42.392Z,6.05
2023-03-01T04:20:12.100Z,6.70
2023-03-01T04:22:40.099Z,5.95
2023-03-01T04:25:07.925Z,6.55
2023-03-01T04:27:35.659Z,5.97
2023-03-01T04:30:03.470Z,6.35
2023-03-01T04:32:30.853Z,6.35
2023-03-01T04:34:57.971Z,7.05
2023-03-01T04:37:28.013Z,6.50
2023-03-01T04:39:55.214Z,5.93
2023-03-01T04:42:23.486Z,6.75
2023-03-01T04:44:52.241Z,6.35
2023-03-01T04:47:19.446Z,7.10
2023-03-01T04:49:46.786Z,6.55
2023-03-01T04:52:13.954Z,6.75
2023-03-01T04:54:41.032Z,5.95
2023-03-01T04:57:08.303Z,6.20
2023-03-01T04:59:37.226Z,6.80
2023-03-01T05:02:04.394Z,5.93
2023-03-01T05:04:32.377Z,6.28
2023-03-01T05:06:59.744Z,6.00
2023-03-01T05:09:27.256Z,6.45
2023-03-01T05:11:54.448Z,6.88
2023-03-01T05:14:21.653Z,6.60
2023-03-01T05:16:49.129Z,6.57
2023-03-01T05:19:18.353Z,7.75
2023-03-01T05:22:04.429Z,6.85
2023-03-01T05:24:32.942Z,5.97
2023-03-01T05:27:00.723Z,7.28
2023-03-01T05:29:28.403Z,6.75
2023-03-01T05:31:56.755Z,6.60
2023-03-01T05:34:27.864Z,6.80
2023-03-01T05:36:55.429Z,7.03
2023-03-01T05:39:23.471Z,7.40
2023-03-01T05:41:54.231Z,6.50
2023-03-01T05:44:21.668Z,6.45
2023-03-01T05:46:49.227Z,6.82
2023-03-01T05:49:16.968Z,6.97
2023-03-01T05:51:44.666Z,6.60
2023-03-01T05:54:11.960Z,8.15
2023-03-01T05:56:39.262Z,7.60
2023-03-01T05:59:06.447Z,7.57
2023-03-01T06:01:34.207Z,7.53
2023-03-01T06:04:01.392Z,7.78
2023-03-01T06:06:29.270Z,7.93
2023-03-01T06:08:56.690Z,9.13
2023-03-01T06:11:23.848Z,8.40
2023-03-01T06:13:51.039Z,8.20
2023-03-01T06:16:18.287Z,9.27
2023-03-01T06:18:45.789Z,9.13
2023-03-01T06:21:13.001Z,7.93
2023-03-01T06:23:40.426Z,8.52
2023-03-01T06:26:10.518Z,7.95
2023-03-01T06:28:37.811Z,8.85
2023-03-01T06:31:05.172Z,8.77
2023-03-01T06:33:32.358Z,9.95
2023-03-01T06:35:59.509Z,9.48
2023-03-01T06:38:26.825Z,8.32
2023-03-01T06:40:58.164Z,9.40
2023-03-01T06:43:25.807Z,8.18
2023-03-01T06:45:52.939Z,9.35
2023-03-01T06:48:20.070Z,8.50
2023-03-01T06:50:47.299Z,8.25
2023-03-01T06:53:14.440Z,8.40
2023-03-01T06:55:41.515Z,8.02
2023-03-01T06:58:08.573Z,8.23
2023-03-01T07:00:35.756Z,8.30
2023-03-01T07:03:03.795Z,8.52
2023-03-01T07:05:31.569Z,8.27
2023-03-01T07:07:58.846Z,8.93
2023-03-01T07:10:26.306Z,8.40
2023-03-01T07:12:56.286Z,8.48
2023-03-01T07:15:23.592Z,8.98
2023-03-01T07:17:51.710Z,9.82
2023-03-01T07:20:19.922Z,8.63
2023-03-01T07:22:47.038Z,9.65
2023-03-01T07:25:14.365Z,8.82
2023-03-01T07:27:41.539Z,9.80
2023-03-01T07:30:09.082Z,9.77
2023-03-01T07:32:36.354Z,9.63
2023-03-01T07:35:03.841Z,11.25
2023-03-01T07:37:31.053Z,19.35
2023-03-01T07:39:58.630Z,22.92
2023-03-01T07:42:25.877Z,17.25
2023-03-01T07:44:53.229Z,12.70
2023-03-01T07:47:20.507Z,14.27
2023-03-01T07:49:47.883Z,12.82
2023-03-01T07:52:15.126Z,11.93
2023-03-01T07:54:45.293Z,10.05
2023-03-01T07:57:12.889Z,12.13
2023-03-01T07:59:40.158Z,11.15
2023-03-01T08:02:07.317Z,10.90
2023-03-01T08:04:34.552Z,10.38
2023-03-01T08:07:01.737Z,10.75
2023-03-01T08:09:28.840Z,13.93
2023-03-01T08:11:57.908Z,16.95
2023-03-01T08:14:25.346Z,11.68
2023-03-01T08:16:52.573Z,10.30
2023-03-01T08:19:19.835Z,10.68
2023-03-01T08:21:47.054Z,8.93
2023-03-01T08:24:14.745Z,9.88
2023-03-01T08:26:42.095Z,9.80
2023-03-01T08:29:09.244Z,10.05
2023-03-01T08:31:38.494Z,8.25
2023-03-01T08:34:07.139Z,8.25
2023-03-01T08:36:36.343Z,8.63
2023-03-01T08:39:03.605Z,8.43
2023-03-01T08:41:31.069Z,7.93
2023-03-01T08:44:01.096Z,7.75
2023-03-01T08:46:28.884Z,7.43
2023-03-01T08:48:56.091Z,7.43
2023-03-01T08:51:24.061Z,7.50
2023-03-01T08:53:51.313Z,6.60
2023-03-01T08:56:19.342Z,7.72
2023-03-01T08:58:50.084Z,7.60
2023-03-01T09:01:19.371Z,7.05
2023-03-01T09:03:49.701Z,7.15
2023-03-01T09:06:17.456Z,7.10
2023-03-01T09:08:45.772Z,5.88
2023-03-01T09:11:13.769Z,6.38
2023-03-01T09:13:43.009Z,6.43
2023-03-01T09:16:12.500Z,7.28
2023-03-01T09:18:39.661Z,6.47
2023-03-01T09:21:08.299Z,6.35
2023-03-01T09:23:39.863Z,5.15
2023-03-01T09:26:07.742Z,5.57
2023-03-01T09:28:34.852Z,5.18
2023-03-01T09:31:03.029Z,4.05
2023-03-01T09:33:30.997Z,5.45
2023-03-01T09:36:01.366Z,4.70
2023-03-01T09:38:28.694Z,3.72
2023-03-01T09:40:59.914Z,3.50
2023-03-01T09:43:26.981Z,4.43
2023-03-01T09:45:55.592Z,3.80
2023-03-01T09:48:24.966Z,3.85
2023-03-01T09:50:52.899Z,3.17
2023-03-01T09:53:21.793Z,3.50
2023-03-01T09:56:07.464Z,3.33
2023-03-01T09:58:38.019Z,3.50
2023-03-01T10:01:17.482Z,3.20
2023-03-01T10:04:02.029Z,3.42
2023-03-01T10:06:35.382Z,2.90
2023-03-01T10:09:14.146Z,3.10
2023-03-01T10:11:46.077Z,3.00
2023-03-01T10:14:31.122Z,3.00
2023-03-01T10:17:03.854Z,3.50
2023-03-01T10:19:33.835Z,3.10
2023-03-01T10:22:16.721Z,3.53
2023-03-01T10:27:15.684Z,3.17
2023-03-01T10:29:49.888Z,3.43
2023-03-01T10:32:17.762Z,3.08
2023-03-01T10:34:44.911Z,2.95
2023-03-01T10:37:14.418Z,2.88
2023-03-01T10:39:58.042Z,2.90
2023-03-01T10:42:29.840Z,2.83
2023-03-01T10:44:57.169Z,3.10
2023-03-01T10:47:25.893Z,2.85
2023-03-01T10:49:56.204Z,2.83
2023-03-01T10:52:25.099Z,3.03
2023-03-01T10:54:57.330Z,3.13
2023-03-01T10:57:37.114Z,2.92
2023-03-01T11:00:24.528Z,2.88
2023-03-01T11:03:00.617Z,3.25
2023-03-01T11:05:30.939Z,2.80
2023-03-01T11:07:59.187Z,3.38
2023-03-01T11:10:26.271Z,3.17
2023-03-01T11:12:54.316Z,3.90
2023-03-01T11:15:26.200Z,3.80
2023-03-01T11:18:00.812Z,3.37
2023-03-01T11:20:37.285Z,4.45
2023-03-01T11:23:12.730Z,3.53
2023-03-01T11:25:42.417Z,4.20
2023-03-01T11:28:12.243Z,4.10
2023-03-01T11:30:49.082Z,4.57
2023-03-01T11:33:26.121Z,4.72
2023-03-01T11:36:12.056Z,3.97
2023-03-01T11:38:39.919Z,4.10
2023-03-01T11:41:08.090Z,3.85
2023-03-01T11:43:56.676Z,4.40
2023-03-01T11:46:31.023Z,4.57
2023-03-01T11:49:24.422Z,7.70
2023-03-01T11:52:04.783Z,4.30
2023-03-01T11:54:31.833Z,4.50
2023-03-01T11:57:04.488Z,4.50
2023-03-01T12:02:04.881Z,5.60
2023-03-01T12:04:38.304Z,4.78
2023-03-01T12:07:12.582Z,5.40
2023-03-01T12:10:03.571Z,5.90
2023-03-01T12:12:39.827Z,5.63
2023-03-01T12:15:28.956Z,4.78
2023-03-01T12:18:15.143Z,4.43
2023-03-01T12:20:42.242Z,4.35
2023-03-01T12:23:20.926Z,5.28
2023-03-01T12:25:51.145Z,4.68
2023-03-01T12:28:27.044Z,5.07
2023-03-01T12:31:06.241Z,4.30
2023-03-01T12:33:44.628Z,4.60
2023-03-01T12:36:26.938Z,4.63
2023-03-01T12:38:56.926Z,5.07
2023-03-01T12:41:38.079Z,5.15
2023-03-01T12:44:23.503Z,4.90
2023-03-01T12:47:08.868Z,4.47
2023-03-01T12:49:39.478Z,4.53
2023-03-01T12:52:12.397Z,4.47
2023-03-01T12:54:39.658Z,5.53
2023-03-01T12:57:15.936Z,4.40
2023-03-01T12:59:49.025Z,4.18
2023-03-01T13:02:21.085Z,4.25
2023-03-01T13:04:48.442Z,4.80
2023-03-01T13:07:28.252Z,4.80
2023-03-01T13:10:13.717Z,4.32
2023-03-01T13:12:59.298Z,4.47
2023-03-01T13:15:27.549Z,4.60
2023-03-01T13:17:55.809Z,4.95
2023-03-01T13:20:25.999Z,4.60
2023-03-01T13:23:07.855Z,5.25
2023-03-01T13:25:42.872Z,4.40
2023-03-01T13:28:28.988Z,4.28
2023-03-01T13:30:56.147Z,4.80
2023-03-01T13:33:26.009Z,5.57
2023-03-01T13:35:53.321Z,5.05
2023-03-01T13:38:39.091Z,4.63
2023-03-01T13:41:06.522Z,4.38
2023-03-01T13:43:37.980Z,4.90
2023-03-01T13:46:13.063Z,4.35
2023-03-01T13:48:40.649Z,4.50
2023-03-01T13:51:10.434Z,4.85
2023-03-01T13:53:40.575Z,4.57
2023-03-01T13:56:15.444Z,5.88
2023-03-01T13:58:48.187Z,4.53
2023-03-01T14:01:22.755Z,4.28
2023-03-01T14:03:50.494Z,4.35
2023-03-01T14:06:21.046Z,4.70
2023-03-01T14:08:49.512Z,5.78
2023-03-01T14:11:47.474Z,4.40
2023-03-01T14:14:33.010Z,4.45
2023-03-01T14:17:10.108Z,5.70
2023-03-01T14:19:37.620Z,5.15
2023-03-01T14:22:23.542Z,4.53
2023-03-01T14:24:56.448Z,4.78
2023-03-01T14:27:25.029Z,4.93
2023-03-01T14:30:01.009Z,5.65
2023-03-01T14:32:30.067Z,4.63
2023-03-01T14:34:57.884Z,5.18
2023-03-01T14:37:32.347Z,4.90
2023-03-01T14:40:00.311Z,5.63
2023-03-01T14:42:30.042Z,7.00
2023-03-01T14:44:58.679Z,6.95
2023-03-01T14:47:33.626Z,5.75
2023-03-01T14:50:06.433Z,5.80
2023-03-01T14:52:36.889Z,4.90
2023-03-01T14:55:05.610Z,6.03
2023-03-01T14:57:33.161Z,6.45
2023-03-01T15:00:05.076Z,6.05
2023-03-01T15:02:32.717Z,6.28
2023-03-01T15:05:08.977Z,6.40
2023-03-01T15:07:38.708Z,8.07
2023-03-01T15:10:06.770Z,6.18
2023-03-01T15:12:38.218Z,6.90
2023-03-01T15:15:21.223Z,7.03
2023-03-01T15:17:51.916Z,6.63
2023-03-01T15:20:22.611Z,7.13
2023-03-01T15:22:49.857Z,6.80
2023-03-01T15:25:21.095Z,7.22
2023-03-01T15:27:48.976Z,8.35
2023-03-01T15:30:20.306Z,7.55
2023-03-01T15:32:49.034Z,8.13
2023-03-01T15:35:35.595Z,8.20
2023-03-01T15:38:02.871Z,6.90
2023-03-01T15:40:34.362Z,6.85
2023-03-01T15:43:05.682Z,6.95
2023-03-01T15:45:34.953Z,8.13
2023-03-01T15:48:21.246Z,8.63
2023-03-01T15:50:55.739Z,6.72
2023-03-01T15:53:22.876Z,6.60
2023-03-01T15:55:51.224Z,7.03
2023-03-01T15:58:23.081Z,7.07
2023-03-01T16:01:00.789Z,6.63
2023-03-01T16:03:29.116Z,7.85
2023-03-01T16:05:56.369Z,6.40
2023-03-01T16:08:23.511Z,6.68
2023-03-01T16:10:56.058Z,6.97
2023-03-01T16:13:23.220Z,7.63
2023-03-01T16:15:50.440Z,6.25
2023-03-01T16:18:17.597Z,7.03
2023-03-01T16:20:44.647Z,7.35
2023-03-01T16:23:12.337Z,7.13
2023-03-01T16:25:39.444Z,6.70
2023-03-01T16:28:10.048Z,6.47
2023-03-01T16:30:38.480Z,6.63
2023-03-01T16:33:24.170Z,6.68
2023-03-01T16:35:53.234Z,7.18
2023-03-01T16:38:20.509Z,7.13
2023-03-01T16:40:51.483Z,5.90
2023-03-01T16:43:18.758Z,6.38
2023-03-01T16:45:46.415Z,6.80
2023-03-01T16:48:14.551Z,7.45
2023-03-01T16:50:41.706Z,7.20
2023-03-01T16:53:08.810Z,6.25
2023-03-01T16:55:36.238Z,7.45
2023-03-01T16:58:05.099Z,6.75
2023-03-01T17:00:32.548Z,6.47
2023-03-01T17:02:59.772Z,7.15
2023-03-01T17:05:27.016Z,6.97
2023-03-01T17:07:56.608Z,7.05
2023-03-01T17:10:23.921Z,7.57
2023-03-01T17:12:51.170Z,7.53
2023-03-01T17:15:18.311Z,8.18
2023-03-01T17:17:45.400Z,8.20
2023-03-01T17:20:12.767Z,7.68
2023-03-01T17:22:39.917Z,7.78
2023-03-01T17:25:08.775Z,7.45
2023-03-01T17:27:36.106Z,8.10
2023-03-01T17:30:03.409Z,8.30
2023-03-01T17:32:30.614Z,7.95
2023-03-01T17:34:57.820Z,7.45
2023-03-01T17:37:24.989Z,7.95
2023-03-01T17:39:52.115Z,7.63
2023-03-01T17:42:19.361Z,8.25
2023-03-01T17:44:46.530Z,8.50
2023-03-01T17:47:13.710Z,7.57
2023-03-01T17:49:40.853Z,7.72
2023-03-01T17:52:08.088Z,7.43
2023-03-01T17:54:35.351Z,7.88
2023-03-01T17:57:02.475Z,7.65
2023-03-01T17:59:33.383Z,7.03
2023-03-01T18:02:01.632Z,7.55
2023-03-01T18:04:29.530Z,7.50
2023-03-01T18:06:57.060Z,8.07
2023-03-01T18:09:24.269Z,7.50
2023-03-01T18:11:51.413Z,7.63
2023-03-01T18:14:18.652Z,7.88
2023-03-01T18:16:46.024Z,7.47
2023-03-01T18:19:13.267Z,7.60
2023-03-01T18:21:40.644Z,8.15
2023-03-01T18:24:07.915Z,8.18
2023-03-01T18:26:35.303Z,8.57
2023-03-01T18:29:04.935Z,9.05
2023-03-01T18:31:33.262Z,8.60
2023-03-01T18:34:01.407Z,8.05
2023-03-01T18:36:30.741Z,8.40
2023-03-01T18:38:58.172Z,9.30
2023-03-01T18:41:26.415Z,8.85
2023-03-01T18:43:53.905Z,8.98
2023-03-01T18:46:46.391Z,9.93
2023-03-01T18:49:14.184Z,10.68
2023-03-01T18:51:42.496Z,12.13
2023-03-01T18:54:11.708Z,12.35
2023-03-01T18:56:39.852Z,12.45
2023-03-01T18:59:07.489Z,11.85
2023-03-01T19:01:37.388Z,11.60
2023-03-01T19:04:05.391Z,11.10
2023-03-01T19:06:34.702Z,11.48
2023-03-01T19:09:02.135Z,12.15
2023-03-01T19:11:31.352Z,12.43
2023-03-01T19:13:59.787Z,12.73
2023-03-01T19:16:28.968Z,11.15
2023-03-01T19:18:59.410Z,11.98
2023-03-01T19:21:28.071Z,11.30
2023-03-01T19:23:56.232Z,12.02
2023-03-01T19:26:24.886Z,11.50
2023-03-01T19:28:52.677Z,11.57
2023-03-01T19:31:28.764Z,11.20
2023-03-01T19:34:09.837Z,12.85
2023-03-01T19:36:38.958Z,12.80
2023-03-01T19:39:07.513Z,11.93
2023-03-01T19:41:35.197Z,14.23
2023-03-01T19:44:04.674Z,12.38
2023-03-01T19:46:32.570Z,14.32
2023-03-01T19:49:00.647Z,14.90
2023-03-01T19:51:28.235Z,14.88
2023-03-01T19:53:55.891Z,14.27
2023-03-01T19:56:23.421Z,14.20
2023-03-01T19:58:53.283Z,15.50
2023-03-01T20:01:22.019Z,20.35
2023-03-01T20:03:49.379Z,18.05
2023-03-01T20:06:21.460Z,15.65
2023-03-01T20:08:49.422Z,16.73
2023-03-01T20:11:17.736Z,17.73
2023-03-01T20:13:45.823Z,18.48
2023-03-01T20:16:16.166Z,16.83
2023-03-01T20:18:43.744Z,17.73
2023-03-01T20:21:22.865Z,18.95
2023-03-01T20:23:51.364Z,19.67
2023-03-01T20:26:21.406Z,20.38
2023-03-01T20:28:49.343Z,21.98
2023-03-01T20:31:17.692Z,21.50
2023-03-01T20:33:45.351Z,21.40
2023-03-01T20:36:12.990Z,22.33
2023-03-01T20:38:41.128Z,22.83
2023-03-01T20:41:10.138Z,22.08
2023-03-01T20:43:38.092Z,22.15
2023-03-01T20:46:09.430Z,24.73
2023-03-01T20:48:36.920Z,24.35
2023-03-01T20:51:07.809Z,24.38
2023-03-01T20:53:35.177Z,25.25
2023-03-01T20:56:09.661Z,23.73
2023-03-01T20:58:37.097Z,25.13
2023-03-01T21:01:05.252Z,25.17
2023-03-01T21:03:32.868Z,24.40
2023-03-01T21:06:02.113Z,24.88
2023-03-01T21:08:30.396Z,24.42
2023-03-01T21:10:58.153Z,23.80
2023-03-01T21:13:26.339Z,23.98
2023-03-01T21:15:56.993Z,23.00
2023-03-01T21:18:29.787Z,25.15
2023-03-01T21:21:04.303Z,25.38
2023-03-01T21:23:32.515Z,25.17
2023-03-01T21:26:00.642Z,24.70
2023-03-01T21:28:32.391Z,24.92
2023-03-01T21:31:19.839Z,22.45
2023-03-01T21:33:48.676Z,26.25
2023-03-01T21:36:16.464Z,24.35
2023-03-01T21:38:45.807Z,25.48
2023-03-01T21:41:15.005Z,25.70
2023-03-01T21:43:43.098Z,24.45
2023-03-01T21:46:13.064Z,23.67
2023-03-01T21:48:43.476Z,24.17
2023-03-01T21:51:12.675Z,24.63
2023-03-01T21:53:40.231Z,24.05
2023-03-01T21:56:07.845Z,23.05
2023-03-01T21:58:35.069Z,24.75
2023-03-01T22:01:09.925Z,25.17
2023-03-01T22:03:46.634Z,26.35
2023-03-01T22:06:19.209Z,26.20
2023-03-01T22:08:58.637Z,26.13
2023-03-01T22:11:28.982Z,27.83
2023-03-01T22:13:56.940Z,26.15
2023-03-01T22:16:25.893Z,27.38
2023-03-01T22:18:53.010Z,28.85
2023-03-01T22:21:21.358Z,26.63
2023-03-01T22:23:48.761Z,29.75
2023-03-01T22:26:26.542Z,29.02
2023-03-01T22:28:54.492Z,28.45
2023-03-01T22:31:21.904Z,28.63
2023-03-01T22:33:50.258Z,30.67
2023-03-01T22:36:17.443Z,27.90
2023-03-01T22:38:44.603Z,27.75
2023-03-01T22:41:12.114Z,29.70
2023-03-01T22:43:39.321Z,28.92
2023-03-01T22:46:11.168Z,27.42
2023-03-01T22:48:38.439Z,27.30
2023-03-01T22:51:05.716Z,28.90
2023-03-01T22:53:32.955Z,29.75
2023-03-01T22:56:00.116Z,28.02
2023-03-01T22:58:28.553Z,27.73
2023-03-01T23:00:55.858Z,28.80
2023-03-01T23:03:23.136Z,32.63
2023-03-01T23:05:50.350Z,28.63
2023-03-01T23:08:17.473Z,27.10
2023-03-01T23:10:44.601Z,28.13
2023-03-01T23:13:11.975Z,28.83
2023-03-01T23:15:44.736Z,28.88
2023-03-01T23:18:12.555Z,28.60
2023-03-01T23:20:39.675Z,28.45
2023-03-01T23:23:06.791Z,27.23
2023-03-01T23:25:33.920Z,28.88
2023-03-01T23:28:01.290Z,28.88
2023-03-01T23:30:28.481Z,29.67
2023-03-01T23:32:55.993Z,29.92
2023-03-01T23:35:23.212Z,27.77
2023-03-01T23:37:50.432Z,28.05
2023-03-01T23:40:17.633Z,27.00
2023-03-01T23:43:22.437Z,30.58
2023-03-01T23:45:53.367Z,30.55
2023-03-01T23:48:20.825Z,27.40
2023-03-01T23:50:49.144Z,26.60
2023-03-01T23:53:18.051Z,29.30
2023-03-01T23:55:49.885Z,29.58
2023-03-01T23:58:17.348Z,27.53
